Time;durP1;ratioP1;P1;durP2;ratioP2;P2;SDS_P1;SDS_P2;PMS_P1;PMS_P2;Temp;Humidity;BMP_temperature;BMP_pressure;BME280_temperature;BME280_humidity;BME280_pressure;Samples;Min_cycle;Max_cycle;Signal;HPM_P1;HPM_P2
2023/01/01 00:01:08;;;;;;;54.03;33.50;;;13.40;99.90;;;;;;5140170;27;20088;-82
2023/01/01 00:03:34;;;;;;;65.70;47.17;;;12.70;99.90;;;;;;5158074;27;20049;-80
2023/01/01 00:06:05;;;;;;;61.80;36.57;;;12.70;99.90;;;;;;5158031;27;20461;-82
2023/01/01 00:08:31;;;;;;;39.45;24.85;;;13.10;99.90;;;;;;5139524;27;20494;-79
2023/01/01 00:11:00;;;;;;;49.53;30.80;;;13.00;99.90;;;;;;5158013;27;20039;-79
2023/01/01 00:13:26;;;;;;;32.05;22.27;;;12.80;99.90;;;;;;5139015;27;20091;-81
2023/01/01 00:15:52;;;;;;;37.10;20.60;;;12.50;99.90;;;;;;5139498;27;20042;-83
2023/01/01 00:18:17;;;;;;;42.03;21.83;;;12.30;99.90;;;;;;5157853;27;20050;-82
2023/01/01 00:20:43;;;;;;;32.88;20.27;;;13.50;99.90;;;;;;5157728;27;20086;-83
2023/01/01 00:23:08;;;;;;;35.17;21.33;;;12.80;99.90;;;;;;5157827;27;20490;-83
2023/01/01 00:25:34;;;;;;;58.70;43.47;;;12.50;99.90;;;;;;5157804;27;20042;-81
2023/01/01 00:28:00;;;;;;;68.13;46.17;;;12.10;99.90;;;;;;5157739;27;20039;-83
2023/01/01 00:30:26;;;;;;;51.63;35.55;;;12.80;99.90;;;;;;5157652;27;20042;-83
2023/01/01 00:32:51;;;;;;;43.22;23.95;;;12.90;99.90;;;;;;5157341;27;20089;-84
2023/01/01 00:35:17;;;;;;;38.50;22.85;;;12.90;99.90;;;;;;5139211;27;20043;-81
2023/01/01 00:37:43;;;;;;;32.55;18.60;;;13.20;99.90;;;;;;5157571;27;20047;-80
2023/01/01 00:40:09;;;;;;;32.10;17.90;;;13.00;99.90;;;;;;5157031;27;20397;-84
2023/01/01 00:42:39;;;;;;;27.77;17.10;;;13.00;99.90;;;;;;5157043;27;20138;-83
2023/01/01 00:45:05;;;;;;;35.22;21.77;;;13.20;99.90;;;;;;5122283;27;20074;-85
2023/01/01 00:47:31;;;;;;;38.10;24.08;;;13.10;99.90;;;;;;5157276;27;20478;-82
2023/01/01 00:49:57;;;;;;;64.32;38.92;;;13.10;99.90;;;;;;5157263;27;20079;-83
2023/01/01 00:52:22;;;;;;;27.58;17.92;;;13.10;99.90;;;;;;5157247;27;20100;-81
2023/01/01 00:54:48;;;;;;;32.13;18.20;;;13.20;99.90;;;;;;5157403;27;20129;-81
2023/01/01 00:57:13;;;;;;;49.85;29.05;;;13.20;99.90;;;;;;5157104;27;20114;-82
2023/01/01 00:59:39;;;;;;;31.73;17.27;;;13.20;99.90;;;;;;5157125;27;20420;-84
2023/01/01 01:02:05;;;;;;;24.80;15.50;;;12.40;99.90;;;;;;5156919;27;20035;-82
2023/01/01 01:04:30;;;;;;;34.92;14.80;;;12.50;99.90;;;;;;5156594;27;20035;-83
2023/01/01 01:06:56;;;;;;;24.52;13.80;;;13.90;99.90;;;;;;5138711;27;20041;-82
2023/01/01 01:09:21;;;;;;;31.30;18.90;;;13.10;99.90;;;;;;5156896;27;20115;-83
2023/01/01 01:11:47;;;;;;;28.73;16.80;;;12.20;99.90;;;;;;5156852;27;20047;-81
2023/01/01 01:14:13;;;;;;;28.75;16.48;;;12.70;99.90;;;;;;5156691;27;20042;-82
2023/01/01 01:16:39;;;;;;;28.55;16.92;;;13.00;99.90;;;;;;5156459;27;20478;-82
2023/01/01 01:19:06;;;;;;;30.75;20.70;;;12.50;99.90;;;;;;5156581;27;20039;-83
2023/01/01 01:21:33;;;;;;;30.03;17.47;;;12.90;99.90;;;;;;5156542;27;20049;-80
2023/01/01 01:24:00;;;;;;;27.77;16.13;;;12.90;99.90;;;;;;5138067;27;20130;-80
2023/01/01 01:26:28;;;;;;;26.92;16.48;;;12.60;99.90;;;;;;5155679;27;20038;-79
2023/01/01 01:28:55;;;;;;;28.23;16.30;;;12.20;99.90;;;;;;5138353;27;20198;-79
2023/01/01 01:31:23;;;;;;;22.05;14.43;;;13.60;99.90;;;;;;5156595;27;20047;-80
2023/01/01 01:33:49;;;;;;;24.38;15.35;;;13.00;99.90;;;;;;5156028;27;20561;-79
2023/01/01 01:36:16;;;;;;;26.17;15.05;;;13.10;99.90;;;;;;5156675;27;20368;-84
2023/01/01 01:38:42;;;;;;;24.42;15.13;;;12.80;99.90;;;;;;5156434;27;20046;-80
2023/01/01 01:41:09;;;;;;;25.60;14.33;;;12.60;99.90;;;;;;5137791;27;20436;-79
2023/01/01 01:43:34;;;;;;;22.38;14.00;;;13.20;99.90;;;;;;5156325;27;20073;-82
2023/01/01 01:46:15;;;;;;;23.75;14.02;;;13.30;99.90;;;;;;5156329;27;20558;-81
2023/01/01 01:48:44;;;;;;;26.80;15.95;;;13.20;99.90;;;;;;5156312;27;20051;-82
2023/01/01 01:51:13;;;;;;;28.67;17.77;;;12.80;99.90;;;;;;5138013;27;20071;-81
2023/01/01 01:53:45;;;;;;;35.92;18.75;;;13.00;99.90;;;;;;5138788;27;20050;-80
2023/01/01 01:56:18;;;;;;;28.95;14.82;;;13.10;99.90;;;;;;5138456;27;20065;-82
2023/01/01 01:58:44;;;;;;;26.98;16.35;;;13.00;99.90;;;;;;5156365;27;20047;-83
2023/01/01 02:01:10;;;;;;;29.47;15.90;;;13.40;99.90;;;;;;5137415;27;20535;-81
2023/01/01 02:03:52;;;;;;;29.55;16.52;;;12.20;99.90;;;;;;5156042;27;20046;-84
2023/01/01 02:06:18;;;;;;;23.67;16.33;;;12.90;99.90;;;;;;5155917;27;20057;-82
2023/01/01 02:08:44;;;;;;;37.83;22.15;;;12.60;99.90;;;;;;5137449;27;20391;-81
2023/01/01 02:11:10;;;;;;;41.03;24.90;;;12.90;99.90;;;;;;5155793;27;20042;-82
2023/01/01 02:13:36;;;;;;;31.73;20.10;;;13.00;99.90;;;;;;5155737;27;20046;-82
2023/01/01 02:16:13;;;;;;;30.98;19.25;;;12.80;99.90;;;;;;5155456;27;20163;-83
2023/01/01 02:18:43;;;;;;;38.05;22.35;;;12.80;99.90;;;;;;5155684;27;20042;-81
2023/01/01 02:21:29;;;;;;;35.90;19.52;;;13.50;99.90;;;;;;5156003;27;20046;-84
2023/01/01 02:24:13;;;;;;;28.05;15.68;;;12.80;99.90;;;;;;5155759;27;20056;-83
2023/01/01 02:27:05;;;;;;;23.60;13.50;;;12.80;99.90;;;;;;5155840;27;20060;-82
2023/01/01 02:29:51;;;;;;;25.08;14.77;;;12.80;99.90;;;;;;5155857;27;20054;-84
2023/01/01 02:32:25;;;;;;;24.27;14.57;;;12.80;99.90;;;;;;5155210;27;20043;-83
2023/01/01 02:34:53;;;;;;;22.67;12.68;;;13.10;99.90;;;;;;5156163;27;20493;-82
2023/01/01 02:37:21;;;;;;;21.30;12.57;;;12.40;99.90;;;;;;5155214;27;20470;-83
2023/01/01 02:39:52;;;;;;;20.17;11.18;;;12.60;99.90;;;;;;5155405;27;20042;-82
2023/01/01 02:42:19;;;;;;;19.65;11.05;;;13.00;99.90;;;;;;5155134;27;20502;-81
2023/01/01 02:44:49;;;;;;;23.50;10.52;;;12.20;99.90;;;;;;5155346;27;20043;-81
2023/01/01 02:47:17;;;;;;;20.70;10.43;;;12.80;99.90;;;;;;5155395;27;20047;-82
2023/01/01 02:49:57;;;;;;;23.02;10.15;;;13.00;99.90;;;;;;5137257;27;20038;-82
2023/01/01 02:52:40;;;;;;;19.88;9.00;;;12.80;99.90;;;;;;5155581;27;20045;-82
2023/01/01 02:55:22;;;;;;;19.50;9.65;;;12.90;99.90;;;;;;5155378;27;20367;-82
2023/01/01 03:00:17;;;;;;;17.63;10.27;;;12.80;99.90;;;;;;5155629;27;20045;-81
2023/01/01 03:00:49;;;;;;;17.65;8.18;;;12.90;99.90;;;;;;5155090;27;20099;-82
2023/01/01 03:03:18;;;;;;;21.95;7.32;;;12.90;99.90;;;;;;5120028;27;20043;-83
2023/01/01 03:08:59;;;;;;;14.00;6.45;;;12.90;99.90;;;;;;5155083;27;20474;-81
2023/01/01 03:11:31;;;;;;;13.07;5.38;;;12.90;99.90;;;;;;5106141;27;20487;-81
2023/01/01 03:14:06;;;;;;;10.82;4.88;;;12.90;99.90;;;;;;5136814;27;20088;-82
2023/01/01 03:17:00;;;;;;;8.57;5.00;;;13.00;99.90;;;;;;5155013;27;20042;-82
2023/01/01 03:19:30;;;;;;;12.20;4.78;;;13.10;99.90;;;;;;5154795;27;20153;-82
2023/01/01 03:22:07;;;;;;;9.65;4.03;;;13.10;99.90;;;;;;5154998;27;20043;-83
2023/01/01 03:24:55;;;;;;;8.93;3.97;;;13.10;99.90;;;;;;5154999;27;20039;-82
2023/01/01 03:27:29;;;;;;;15.17;4.17;;;13.20;99.90;;;;;;5155120;27;20060;-82
2023/01/01 03:29:58;;;;;;;10.35;3.00;;;13.10;99.90;;;;;;5154965;27;20042;-81
2023/01/01 03:32:59;;;;;;;8.25;3.92;;;13.70;99.90;;;;;;5155197;27;20083;-82
2023/01/01 03:35:19;;;;;;;12.10;4.00;;;13.10;99.90;;;;;;5154560;27;20123;-83
2023/01/01 03:37:48;;;;;;;10.25;3.63;;;13.30;99.90;;;;;;5136658;27;20039;-81
2023/01/01 03:40:17;;;;;;;6.75;3.00;;;12.80;99.90;;;;;;5154725;27;20398;-80
2023/01/01 03:42:51;;;;;;;6.97;3.22;;;13.30;99.90;;;;;;5154992;27;20039;-82
2023/01/01 03:45:23;;;;;;;8.68;2.80;;;13.30;99.90;;;;;;5154839;27;20049;-82
2023/01/01 03:47:49;;;;;;;10.60;3.33;;;13.30;99.90;;;;;;5155245;27;20572;-81
2023/01/01 03:50:15;;;;;;;9.53;2.63;;;13.30;99.90;;;;;;5140695;27;20054;-81
2023/01/01 03:52:53;;;;;;;7.97;3.43;;;13.40;99.90;;;;;;5158561;27;20038;-83
2023/01/01 03:55:20;;;;;;;;;;;13.40;99.90;;;;;;5141775;27;20280;-80
2023/01/01 03:57:57;;;;;;;9.32;2.63;;;13.40;99.90;;;;;;5158064;27;20434;-80
2023/01/01 04:00:27;;;;;;;7.57;2.53;;;13.40;99.90;;;;;;5158475;27;20080;-80
2023/01/01 04:03:13;;;;;;;8.77;2.58;;;13.40;99.90;;;;;;5158636;27;20470;-81
2023/01/01 04:05:41;;;;;;;8.68;2.75;;;13.50;99.90;;;;;;5158472;27;20038;-81
2023/01/01 04:08:08;;;;;;;9.05;2.55;;;13.50;99.90;;;;;;5158454;27;20043;-83
2023/01/01 04:10:37;;;;;;;6.35;2.33;;;13.70;99.90;;;;;;5158442;27;20039;-80
2023/01/01 04:13:05;;;;;;;9.68;2.67;;;13.80;99.90;;;;;;5158059;27;20390;-82
2023/01/01 04:15:31;;;;;;;6.38;2.30;;;13.50;99.90;;;;;;5139608;27;20035;-80
2023/01/01 04:17:57;;;;;;;5.60;2.60;;;13.20;99.90;;;;;;5158060;27;20086;-81
2023/01/01 04:20:23;;;;;;;6.50;2.15;;;13.50;99.90;;;;;;5157941;27;20039;-82
2023/01/01 04:22:49;;;;;;;7.68;2.13;;;13.60;99.90;;;;;;5139336;27;20049;-83
2023/01/01 04:25:16;;;;;;;7.82;2.55;;;13.60;99.90;;;;;;5139448;27;20482;-81
2023/01/01 04:27:41;;;;;;;;;;;13.60;99.90;;;;;;5158228;27;20043;-80
2023/01/01 04:30:10;;;;;;;9.50;2.30;;;13.20;99.90;;;;;;5157716;27;19945;-81
2023/01/01 04:32:36;;;;;;;6.40;2.03;;;13.60;99.90;;;;;;5157299;27;20042;-80
2023/01/01 04:35:01;;;;;;;5.07;2.30;;;13.60;99.90;;;;;;5157776;27;20539;-83
2023/01/01 04:37:27;;;;;;;6.95;2.35;;;13.60;99.90;;;;;;5157465;27;20043;-81
2023/01/01 04:39:53;;;;;;;8.55;2.50;;;13.60;99.90;;;;;;5157767;27;20047;-83
2023/01/01 04:42:19;;;;;;;8.30;2.15;;;13.00;99.90;;;;;;5158540;27;20490;-81
2023/01/01 04:44:44;;;;;;;7.50;2.23;;;13.30;99.90;;;;;;5157693;27;20129;-81
2023/01/01 04:47:10;;;;;;;9.35;2.28;;;12.90;99.90;;;;;;5157876;27;20086;-82
2023/01/01 04:49:36;;;;;;;6.53;2.00;;;13.60;99.90;;;;;;5157456;27;20038;-82
2023/01/01 04:52:02;;;;;;;6.63;2.47;;;13.50;99.90;;;;;;5157286;27;20039;-81
2023/01/01 04:54:28;;;;;;;9.48;2.30;;;13.10;99.90;;;;;;5156984;27;20133;-81
2023/01/01 04:56:54;;;;;;;7.63;2.50;;;13.20;99.90;;;;;;5157190;27;20129;-82
2023/01/01 04:59:19;;;;;;;5.93;2.20;;;13.90;99.90;;;;;;5157183;27;20045;-82
2023/01/01 05:01:45;;;;;;;7.28;2.20;;;13.60;99.90;;;;;;5157406;27;20044;-81
2023/01/01 05:04:15;;;;;;;6.27;2.33;;;13.20;99.90;;;;;;5157069;27;20078;-79
2023/01/01 05:06:41;;;;;;;4.43;2.00;;;13.70;99.90;;;;;;5156844;27;20524;-81
2023/01/01 05:09:09;;;;;;;6.50;2.23;;;13.70;99.90;;;;;;5156987;27;20050;-82
2023/01/01 05:11:35;;;;;;;5.18;2.13;;;13.30;99.90;;;;;;5156884;27;20038;-80
2023/01/01 05:14:00;;;;;;;4.07;2.00;;;13.30;99.90;;;;;;5156868;27;20043;-83
2023/01/01 05:16:29;;;;;;;5.30;1.92;;;13.60;99.90;;;;;;5138732;27;20039;-81
2023/01/01 05:18:55;;;;;;;7.65;1.67;;;13.00;99.90;;;;;;5156501;27;20498;-81
2023/01/01 05:21:26;;;;;;;4.32;1.88;;;13.30;99.90;;;;;;5138261;27;20126;-83
2023/01/01 05:23:58;;;;;;;6.18;1.85;;;13.50;99.90;;;;;;5138183;27;20458;-83
2023/01/01 05:26:27;;;;;;;3.83;1.75;;;13.50;99.90;;;;;;5156709;27;20060;-80
2023/01/01 05:28:53;;;;;;;6.15;2.00;;;13.50;99.90;;;;;;5156490;27;20046;-83
2023/01/01 05:31:22;;;;;;;5.63;2.28;;;12.80;99.90;;;;;;5156525;27;20046;-80
2023/01/01 05:33:49;;;;;;;4.85;1.70;;;13.90;99.90;;;;;;5156391;27;20049;-81
2023/01/01 05:36:27;;;;;;;6.30;1.80;;;13.40;99.90;;;;;;5156331;27;20095;-81
2023/01/01 05:38:53;;;;;;;3.35;1.40;;;13.40;99.90;;;;;;5138481;27;20085;-80
2023/01/01 05:41:20;;;;;;;7.23;1.50;;;13.60;99.90;;;;;;5137659;27;20085;-82
2023/01/01 05:43:46;;;;;;;7.47;1.60;;;13.20;99.90;;;;;;5156225;27;20051;-80
2023/01/01 05:46:23;;;;;;;4.10;1.50;;;12.60;99.90;;;;;;5156244;27;20058;-81
2023/01/01 05:48:50;;;;;;;3.38;1.48;;;13.50;99.90;;;;;;5156084;27;20078;-79
2023/01/01 05:51:17;;;;;;;;;;;12.50;99.90;;;;;;5156580;27;20043;-80
2023/01/01 05:53:43;;;;;;;4.68;1.48;;;13.10;99.90;;;;;;5156097;27;19966;-81
2023/01/01 05:56:09;;;;;;;7.63;1.83;;;13.10;99.90;;;;;;5156070;27;20150;-83
2023/01/01 05:58:36;;;;;;;3.83;1.35;;;13.50;99.90;;;;;;5155908;27;20386;-80
2023/01/01 06:01:11;;;;;;;6.32;1.60;;;12.80;99.90;;;;;;5155764;27;20038;-80
2023/01/01 06:03:37;;;;;;;3.28;1.38;;;13.00;99.90;;;;;;5155929;27;20046;-79
2023/01/01 06:06:09;;;;;;;4.33;1.33;;;13.10;99.90;;;;;;5155954;27;20074;-81
2023/01/01 06:08:34;;;;;;;4.43;1.80;;;13.00;99.90;;;;;;5156038;27;20050;-80
2023/01/01 06:11:01;;;;;;;2.58;1.27;;;12.90;99.90;;;;;;5155614;27;20058;-80
2023/01/01 06:13:28;;;;;;;5.13;1.60;;;12.50;99.90;;;;;;5156023;27;20072;-81
2023/01/01 06:15:57;;;;;;;3.20;1.20;;;12.80;99.90;;;;;;5155711;27;20130;-81
2023/01/01 06:18:24;;;;;;;3.40;1.48;;;12.80;99.90;;;;;;5155694;27;20074;-82
2023/01/01 06:20:49;;;;;;;4.97;1.63;;;12.70;99.90;;;;;;5155588;27;20042;-82
2023/01/01 06:23:15;;;;;;;3.05;1.60;;;12.80;99.90;;;;;;5155992;27;20042;-82
2023/01/01 06:25:41;;;;;;;5.65;1.50;;;12.70;99.90;;;;;;5137297;27;20034;-82
2023/01/01 06:28:06;;;;;;;4.20;1.48;;;12.50;99.90;;;;;;5155465;27;20039;-83
2023/01/01 06:30:33;;;;;;;4.30;1.60;;;12.10;99.90;;;;;;5155509;27;20122;-80
2023/01/01 06:32:59;;;;;;;5.30;1.50;;;12.60;99.90;;;;;;5155438;27;20121;-82
2023/01/01 06:35:26;;;;;;;4.60;1.80;;;12.60;99.90;;;;;;5155849;27;20039;-83
2023/01/01 06:37:51;;;;;;;5.82;1.60;;;12.40;99.90;;;;;;5136998;27;20042;-81
2023/01/01 06:40:17;;;;;;;5.70;1.63;;;12.40;99.90;;;;;;5155231;27;20050;-82
2023/01/01 06:42:42;;;;;;;5.50;1.90;;;13.20;99.90;;;;;;5155363;27;20106;-81
2023/01/01 06:45:09;;;;;;;7.53;1.77;;;13.60;99.90;;;;;;5155437;27;20042;-83
2023/01/01 06:47:35;;;;;;;3.50;1.50;;;12.50;99.90;;;;;;5136811;27;20039;-81
2023/01/01 06:50:02;;;;;;;6.82;1.77;;;12.50;99.90;;;;;;5155232;27;20053;-82
2023/01/01 06:52:28;;;;;;;3.60;1.63;;;12.80;99.90;;;;;;5155200;27;20047;-83
2023/01/01 06:54:53;;;;;;;4.20;1.63;;;12.00;99.90;;;;;;5136868;27;20034;-82
2023/01/01 06:57:19;;;;;;;6.95;1.75;;;12.40;99.90;;;;;;5155177;27;20047;-83
2023/01/01 06:59:44;;;;;;;6.25;1.73;;;11.90;99.90;;;;;;5137131;27;20125;-83
2023/01/01 07:02:10;;;;;;;9.85;1.95;;;12.80;99.90;;;;;;5155092;27;20039;-80
2023/01/01 07:04:36;;;;;;;5.47;1.73;;;11.90;99.90;;;;;;5155164;27;20092;-82
2023/01/01 07:07:02;;;;;;;4.03;1.55;;;12.20;99.90;;;;;;5155217;27;20486;-80
2023/01/01 07:09:28;;;;;;;5.53;1.75;;;12.20;99.90;;;;;;5137392;27;20129;-79
2023/01/01 07:11:53;;;;;;;9.20;1.92;;;12.60;99.90;;;;;;5155021;27;20031;-80
2023/01/01 07:14:19;;;;;;;9.55;2.03;;;12.60;99.90;;;;;;5155219;27;20046;-83
2023/01/01 07:16:44;;;;;;;3.58;1.67;;;12.20;99.90;;;;;;5155012;27;20041;-82
2023/01/01 07:19:10;;;;;;;5.80;1.88;;;12.20;99.90;;;;;;5137099;27;20045;-81
2023/01/01 07:21:53;;;;;;;4.80;1.77;;;11.90;99.90;;;;;;5154752;27;20099;-80
2023/01/01 07:24:18;;;;;;;6.30;1.65;;;12.20;99.90;;;;;;5157490;27;20038;-82
2023/01/01 07:26:44;;;;;;;3.45;1.60;;;11.80;99.90;;;;;;5140779;27;20039;-81
2023/01/01 07:29:11;;;;;;;5.28;1.92;;;12.90;99.90;;;;;;5140448;27;20049;-81
2023/01/01 07:31:39;;;;;;;8.07;1.83;;;12.20;99.90;;;;;;5159369;27;20087;-80
2023/01/01 07:34:06;;;;;;;6.43;1.80;;;11.90;99.90;;;;;;5140836;27;20053;-83
2023/01/01 07:36:32;;;;;;;6.07;1.60;;;12.10;99.90;;;;;;5158847;27;20131;-80
2023/01/01 07:38:58;;;;;;;3.88;1.60;;;12.30;99.90;;;;;;5159032;27;20138;-82
2023/01/01 07:41:23;;;;;;;5.03;1.52;;;12.30;99.90;;;;;;5158778;27;20475;-81
2023/01/01 07:43:49;;;;;;;3.97;1.60;;;12.10;99.90;;;;;;5158675;27;20129;-81
2023/01/01 07:46:17;;;;;;;3.67;1.50;;;12.60;99.90;;;;;;5158665;27;20039;-79
2023/01/01 07:48:43;;;;;;;9.30;1.67;;;12.30;99.90;;;;;;5140406;27;20034;-82
2023/01/01 07:51:09;;;;;;;8.13;1.83;;;12.70;99.90;;;;;;5140439;27;20045;-81
2023/01/01 07:53:34;;;;;;;5.30;2.00;;;12.40;99.90;;;;;;5158475;27;20424;-80
2023/01/01 07:56:00;;;;;;;7.40;1.75;;;12.10;99.90;;;;;;5139911;27;20042;-82
2023/01/01 07:58:25;;;;;;;4.20;1.75;;;11.90;99.90;;;;;;5158325;27;20041;-80
2023/01/01 08:00:51;;;;;;;6.07;1.63;;;12.10;99.90;;;;;;5158157;27;20125;-81
2023/01/01 08:03:17;;;;;;;9.23;1.60;;;12.10;99.90;;;;;;5158207;27;20047;-84
2023/01/01 08:05:42;;;;;;;4.07;1.77;;;12.10;99.90;;;;;;5158208;27;20046;-80
2023/01/01 08:08:08;;;;;;;5.05;1.77;;;12.40;99.90;;;;;;5158578;27;20502;-81
2023/01/01 08:10:34;;;;;;;6.40;1.60;;;12.00;99.90;;;;;;5105588;27;20394;-83
2023/01/01 08:13:01;;;;;;;7.00;1.85;;;11.30;99.90;;;;;;5158160;27;20043;-81
2023/01/01 08:15:27;;;;;;;4.88;1.52;;;11.70;99.90;;;;;;5158692;27;20050;-83
2023/01/01 08:17:57;;;;;;;5.40;1.50;;;12.10;99.90;;;;;;5158102;27;20038;-81
2023/01/01 08:20:23;;;;;;;5.85;1.52;;;12.10;99.90;;;;;;5158297;27;20039;-83
2023/01/01 08:22:48;;;;;;;4.40;1.33;;;12.00;99.90;;;;;;5139468;27;20053;-79
2023/01/01 08:25:14;;;;;;;4.85;1.60;;;12.00;99.90;;;;;;5157945;27;20042;-81
2023/01/01 08:27:40;;;;;;;7.88;1.70;;;12.00;99.90;;;;;;5157797;27;20494;-82
2023/01/01 08:30:06;;;;;;;8.82;2.03;;;12.10;99.90;;;;;;5122460;27;20082;-82
2023/01/01 08:32:32;;;;;;;5.10;1.58;;;11.90;99.90;;;;;;5157757;27;20039;-84
2023/01/01 08:34:57;;;;;;;5.07;1.48;;;12.00;99.90;;;;;;5157514;27;20043;-83
2023/01/01 08:37:23;;;;;;;10.88;1.60;;;11.90;99.90;;;;;;5139440;27;20046;-80
2023/01/01 08:39:52;;;;;;;5.28;1.77;;;11.90;99.90;;;;;;5139389;27;20089;-83
2023/01/01 08:42:18;;;;;;;5.72;1.65;;;11.90;99.90;;;;;;5158187;27;20057;-83
2023/01/01 08:44:43;;;;;;;8.75;1.70;;;11.50;99.90;;;;;;5157841;27;20046;-81
2023/01/01 08:47:24;;;;;;;7.15;1.88;;;11.80;99.90;;;;;;5157810;27;20045;-81
2023/01/01 08:49:50;;;;;;;8.85;1.90;;;11.80;99.90;;;;;;5139462;27;20046;-81
2023/01/01 08:52:16;;;;;;;6.73;1.97;;;11.70;99.90;;;;;;5122082;27;20047;-81
2023/01/01 08:54:42;;;;;;;9.00;1.92;;;11.80;99.90;;;;;;5157373;27;20042;-82
2023/01/01 08:57:08;;;;;;;10.43;2.55;;;12.60;99.90;;;;;;5138525;27;20119;-81
2023/01/01 08:59:34;;;;;;;7.55;1.80;;;11.80;99.90;;;;;;5157252;27;20058;-81
2023/01/01 09:01:59;;;;;;;5.07;1.70;;;11.70;99.90;;;;;;5157087;27;20039;-79
2023/01/01 09:04:25;;;;;;;5.10;1.30;;;11.70;99.90;;;;;;5157182;27;20042;-81
2023/01/01 09:06:51;;;;;;;9.75;2.35;;;11.70;99.90;;;;;;5157103;27;20505;-80
2023/01/01 09:09:17;;;;;;;7.00;1.98;;;11.70;99.90;;;;;;5138972;27;20038;-82
2023/01/01 09:11:52;;;;;;;4.40;1.55;;;12.00;99.90;;;;;;5138752;27;20491;-81
2023/01/01 09:14:18;;;;;;;5.60;1.80;;;11.70;99.90;;;;;;5156862;27;20103;-80
2023/01/01 09:16:43;;;;;;;10.50;2.40;;;11.60;99.90;;;;;;5156808;27;20047;-81
2023/01/01 09:19:09;;;;;;;6.50;1.52;;;11.60;99.90;;;;;;5156816;27;20046;-80
2023/01/01 09:21:34;;;;;;;4.32;1.60;;;11.70;99.90;;;;;;5156769;27;20465;-83
2023/01/01 09:24:00;;;;;;;7.45;1.63;;;11.70;99.90;;;;;;5138462;27;20039;-80
2023/01/01 09:26:26;;;;;;;4.72;1.52;;;11.70;99.90;;;;;;5156689;27;20038;-82
2023/01/01 09:28:51;;;;;;;7.22;1.92;;;11.80;99.90;;;;;;5156908;27;20046;-81
2023/01/01 09:31:17;;;;;;;6.95;1.88;;;11.70;99.90;;;;;;5138158;27;20047;-82
2023/01/01 09:33:43;;;;;;;6.82;2.10;;;11.60;99.90;;;;;;5156282;27;20550;-80
2023/01/01 09:36:24;;;;;;;7.93;1.73;;;11.90;99.90;;;;;;5138365;27;20086;-79
2023/01/01 09:38:52;;;;;;;6.65;1.83;;;11.80;99.90;;;;;;5156499;27;20042;-83
2023/01/01 09:41:26;;;;;;;5.60;2.13;;;11.80;99.90;;;;;;5103800;27;20107;-80
2023/01/01 09:44:07;;;;;;;6.53;2.08;;;11.90;99.90;;;;;;5139436;27;20051;-80
2023/01/01 09:46:35;;;;;;;8.95;2.05;;;11.90;99.90;;;;;;5120933;27;20099;-80
2023/01/01 09:49:06;;;;;;;6.57;1.70;;;12.00;99.90;;;;;;5138669;27;20051;-81
2023/01/01 09:51:36;;;;;;;7.28;1.50;;;12.00;99.90;;;;;;5156313;27;20070;-82
2023/01/01 09:54:23;;;;;;;8.57;1.77;;;12.60;99.90;;;;;;5156117;27;20103;-80
2023/01/01 09:56:56;;;;;;;7.55;1.63;;;11.50;99.90;;;;;;5138257;27;20051;-82
2023/01/01 09:59:22;;;;;;;7.20;2.08;;;12.50;99.90;;;;;;5156109;27;20043;-79
2023/01/01 10:02:24;;;;;;;10.43;1.75;;;12.20;99.90;;;;;;5120162;27;20405;-80
2023/01/01 10:04:50;;;;;;;6.35;2.00;;;12.20;99.90;;;;;;5156072;27;20046;-81
2023/01/01 10:07:24;;;;;;;6.97;1.50;;;12.20;99.90;;;;;;5155944;27;20043;-82
2023/01/01 10:10:07;;;;;;;6.78;1.85;;;12.20;99.90;;;;;;5137729;27;20126;-80
2023/01/01 10:13:05;;;;;;;8.45;1.95;;;12.20;99.90;;;;;;5156008;27;20117;-83
2023/01/01 10:15:36;;;;;;;11.32;1.95;;;12.20;99.90;;;;;;5156042;27;20103;-82
2023/01/01 10:18:15;;;;;;;7.97;1.90;;;12.10;99.90;;;;;;5155731;27;20081;-81
2023/01/01 10:21:01;;;;;;;9.25;1.80;;;12.10;99.90;;;;;;5155595;27;20051;-79
2023/01/01 10:23:40;;;;;;;10.05;2.15;;;12.00;99.90;;;;;;5155822;27;20050;-79
2023/01/01 10:26:28;;;;;;;9.07;1.77;;;11.90;99.90;;;;;;5155737;27;20039;-81
2023/01/01 10:29:11;;;;;;;9.93;1.80;;;11.90;99.90;;;;;;5155643;27;20050;-79
2023/01/01 10:31:46;;;;;;;9.45;1.80;;;11.90;99.90;;;;;;5137155;27;20038;-81
2023/01/01 10:34:16;;;;;;;8.68;2.28;;;11.80;99.90;;;;;;5137353;27;20053;-82
2023/01/01 10:36:43;;;;;;;11.30;2.33;;;11.80;99.90;;;;;;5155465;27;20048;-82
2023/01/01 10:39:14;;;;;;;4.82;1.80;;;12.50;99.90;;;;;;5155468;27;20497;-82
2023/01/01 10:41:40;;;;;;;7.88;1.83;;;11.90;99.90;;;;;;5155302;27;20090;-82
2023/01/01 10:44:06;;;;;;;4.28;1.67;;;12.00;99.90;;;;;;5155384;27;20555;-82
2023/01/01 10:46:35;;;;;;;11.85;1.80;;;12.00;99.90;;;;;;5155328;27;20383;-82
2023/01/01 10:49:10;;;;;;;9.85;2.03;;;12.10;99.90;;;;;;5155546;27;20046;-79
2023/01/01 10:51:53;;;;;;;6.50;1.80;;;12.00;99.90;;;;;;5137340;27;20047;-81
2023/01/01 10:54:39;;;;;;;8.90;1.90;;;12.00;99.90;;;;;;5136807;27;20512;-81
2023/01/01 10:57:16;;;;;;;13.13;1.98;;;12.00;99.90;;;;;;5155770;27;20147;-79
2023/01/01 10:59:43;;;;;;;6.78;1.67;;;12.00;99.90;;;;;;5159505;27;20039;-82
2023/01/01 11:02:26;;;;;;;10.25;1.63;;;11.10;99.90;;;;;;5159500;27;20121;-81
2023/01/01 11:05:11;;;;;;;11.07;2.00;;;12.00;99.90;;;;;;5159189;27;20554;-81
2023/01/01 11:07:39;;;;;;;6.07;2.08;;;12.00;99.90;;;;;;5159574;27;20466;-81
2023/01/01 11:10:06;;;;;;;12.15;2.30;;;12.00;99.90;;;;;;5159230;27;20083;-81
2023/01/01 11:12:36;;;;;;;;;;;12.00;99.90;;;;;;5159362;27;20550;-79
2023/01/01 11:15:03;;;;;;;10.50;2.40;;;12.10;99.90;;;;;;5159500;27;19919;-81
2023/01/01 11:17:34;;;;;;;11.32;2.10;;;12.10;99.90;;;;;;5159264;27;20084;-79
2023/01/01 11:20:02;;;;;;;5.68;1.63;;;12.20;99.90;;;;;;5159088;27;20050;-80
2023/01/01 11:22:39;;;;;;;5.35;2.17;;;12.40;99.90;;;;;;5158812;27;20494;-81
2023/01/01 11:25:24;;;;;;;6.03;1.58;;;12.30;99.90;;;;;;5158858;27;20399;-80
2023/01/01 11:27:50;;;;;;;9.07;1.52;;;12.50;99.90;;;;;;5140344;27;20126;-79
2023/01/01 11:30:27;;;;;;;12.30;2.42;;;13.10;99.90;;;;;;5158918;27;20171;-80
2023/01/01 11:32:59;;;;;;;5.40;1.60;;;12.80;99.90;;;;;;5158970;27;20054;-81
2023/01/01 11:35:49;;;;;;;13.02;2.70;;;12.80;99.90;;;;;;5158747;27;20280;-81
2023/01/01 11:38:19;;;;;;;6.78;1.80;;;12.90;99.90;;;;;;5141327;27;20448;-80
2023/01/01 11:40:48;;;;;;;6.30;1.85;;;12.40;99.90;;;;;;5158453;27;20147;-83
2023/01/01 11:43:23;;;;;;;7.70;1.90;;;12.70;99.90;;;;;;5158766;27;20043;-83
2023/01/01 11:45:53;;;;;;;7.80;2.00;;;13.00;99.90;;;;;;5158674;27;20054;-84
2023/01/01 11:48:31;;;;;;;7.47;2.28;;;12.50;99.90;;;;;;5157439;27;20042;-81
2023/01/01 11:51:01;;;;;;;10.13;2.17;;;13.20;99.90;;;;;;5154909;27;20049;-79
2023/01/01 11:53:40;;;;;;;9.75;1.85;;;12.80;99.90;;;;;;5140133;27;20118;-78
2023/01/01 11:56:21;;;;;;;7.68;2.28;;;12.80;99.90;;;;;;5158686;27;20074;-77
2023/01/01 11:58:51;;;;;;;8.95;2.00;;;12.80;99.90;;;;;;5158159;27;20394;-77
2023/01/01 12:01:43;;;;;;;8.13;1.85;;;12.80;99.90;;;;;;5139961;27;20046;-82
2023/01/01 12:04:33;;;;;;;9.18;2.33;;;12.80;99.90;;;;;;5158971;27;20390;-78
2023/01/01 12:07:12;;;;;;;8.98;1.90;;;12.70;99.90;;;;;;5158468;27;20394;-80
2023/01/01 12:09:56;;;;;;;8.48;1.95;;;12.80;99.90;;;;;;5157444;27;20398;-80
2023/01/01 12:12:50;;;;;;;11.20;2.00;;;12.80;99.90;;;;;;5140168;27;20038;-81
2023/01/01 12:15:38;;;;;;;6.00;1.70;;;12.80;99.90;;;;;;5158165;27;20050;-80
2023/01/01 12:18:12;;;;;;;3.92;1.67;;;12.70;99.90;;;;;;5139725;27;20053;-83
2023/01/01 12:20:48;;;;;;;9.25;1.90;;;12.60;99.90;;;;;;5158126;27;20461;-81
2023/01/01 12:23:15;;;;;;;7.45;1.90;;;12.60;99.90;;;;;;5157874;27;20513;-79
2023/01/01 12:25:45;;;;;;;7.35;1.90;;;12.30;99.90;;;;;;5157934;27;20053;-81
2023/01/01 12:28:38;;;;;;;7.10;2.05;;;12.30;99.90;;;;;;5157903;27;20129;-78
2023/01/01 12:31:22;;;;;;;8.18;1.80;;;12.30;99.90;;;;;;5158497;27;20043;-81
2023/01/01 12:33:54;;;;;;;7.20;2.58;;;12.20;99.90;;;;;;5157733;27;20039;-81
2023/01/01 12:36:44;;;;;;;7.70;2.03;;;12.30;99.90;;;;;;5157771;27;20046;-79
2023/01/01 12:39:42;;;;;;;7.55;2.20;;;12.20;99.90;;;;;;5157710;27;20042;-80
2023/01/01 12:42:22;;;;;;;13.98;3.22;;;12.20;99.90;;;;;;5157170;27;20065;-81
2023/01/01 12:45:15;;;;;;;13.05;2.13;;;12.10;99.90;;;;;;5157543;27;20061;-79
2023/01/01 12:48:20;;;;;;;6.97;2.10;;;12.10;99.90;;;;;;5157513;27;20043;-79
2023/01/01 12:50:50;;;;;;;7.32;1.85;;;12.10;99.90;;;;;;5157548;27;20424;-80
2023/01/01 12:53:43;;;;;;;7.05;2.17;;;12.00;99.90;;;;;;5157543;27;20097;-80
2023/01/01 12:56:15;;;;;;;10.43;2.10;;;12.00;99.90;;;;;;5138903;27;20081;-79
2023/01/01 12:58:50;;;;;;;10.05;1.80;;;12.00;99.90;;;;;;5156874;27;20084;-81
2023/01/01 13:01:23;;;;;;;6.05;2.00;;;11.90;99.90;;;;;;5155436;27;20066;-81
2023/01/01 13:03:52;;;;;;;8.90;2.10;;;11.90;99.90;;;;;;5155484;27;20031;-78